Time;durP1;ratioP1;P1;durP2;ratioP2;P2;SDS_P1;SDS_P2;PMS_P1;PMS_P2;Temp;Humidity;BMP_temperature;BMP_pressure;BME280_temperature;BME280_humidity;BME280_pressure;Samples;Min_cycle;Max_cycle;Signal;HPM_P1;HPM_P2
2023/09/18 00:02:12;;;;;;;7.65;5.93;;;18.60;57.00;;;;;;5013566;28;20056;-68
2023/09/18 00:04:37;;;;;;;7.40;5.80;;;18.60;56.90;;;;;;5013689;28;20037;-68
2023/09/18 00:07:04;;;;;;;9.18;5.65;;;18.60;56.90;;;;;;5013754;28;20025;-69
2023/09/18 00:09:30;;;;;;;7.10;5.78;;;18.60;56.90;;;;;;5013593;28;20088;-69
2023/09/18 00:11:55;;;;;;;7.57;5.85;;;18.50;56.90;;;;;;5013797;28;20030;-68
2023/09/18 00:14:21;;;;;;;7.95;5.93;;;18.50;56.90;;;;;;5013467;28;20430;-68
2023/09/18 00:16:47;;;;;;;8.27;5.57;;;18.50;56.90;;;;;;5014755;28;20030;-68
2023/09/18 00:19:13;;;;;;;7.28;5.65;;;18.50;56.80;;;;;;5015115;28;20037;-69
2023/09/18 00:21:39;;;;;;;6.60;5.03;;;18.50;56.80;;;;;;5017574;28;20029;-68
2023/09/18 00:24:04;;;;;;;9.98;5.80;;;18.40;56.70;;;;;;5017234;28;20030;-68
2023/09/18 00:26:30;;;;;;;7.35;5.57;;;18.40;56.70;;;;;;5017809;28;20419;-68
2023/09/18 00:28:56;;;;;;;7.53;5.40;;;18.40;56.70;;;;;;5015951;28;20021;-68
2023/09/18 00:31:21;;;;;;;6.70;5.18;;;18.40;56.70;;;;;;5017506;28;20030;-68
2023/09/18 00:33:48;;;;;;;7.28;5.20;;;18.40;56.80;;;;;;5030749;28;20033;-69
2023/09/18 00:36:13;;;;;;;6.97;5.20;;;18.40;56.70;;;;;;5036608;28;20456;-68
2023/09/18 00:38:39;;;;;;;7.90;5.80;;;18.40;56.70;;;;;;5035481;28;20079;-68
2023/09/18 00:41:05;;;;;;;7.78;5.43;;;18.40;56.70;;;;;;5027518;28;20038;-68
2023/09/18 00:43:31;;;;;;;6.85;5.50;;;18.40;56.80;;;;;;5016758;28;20053;-68
2023/09/18 00:45:57;;;;;;;6.75;5.47;;;18.40;56.80;;;;;;5015568;28;20026;-68
2023/09/18 00:48:23;;;;;;;6.75;5.47;;;18.30;56.80;;;;;;5016515;28;20033;-68
2023/09/18 00:50:49;;;;;;;6.93;5.22;;;18.30;56.80;;;;;;5015528;28;20026;-68
2023/09/18 00:53:19;;;;;;;6.93;5.78;;;18.30;56.80;;;;;;5015375;28;20075;-68
2023/09/18 00:55:45;;;;;;;8.20;5.72;;;18.30;56.80;;;;;;5015229;28;20050;-68
2023/09/18 00:58:11;;;;;;;7.35;5.38;;;18.30;56.80;;;;;;5016322;28;20508;-69
2023/09/18 01:00:38;;;;;;;5.80;4.85;;;18.20;56.80;;;;;;5016449;28;20108;-68
2023/09/18 01:03:04;;;;;;;7.53;5.32;;;18.20;56.90;;;;;;5016305;28;20456;-70
2023/09/18 01:05:33;;;;;;;7.55;5.70;;;18.20;56.90;;;;;;5025751;28;20029;-69
2023/09/18 01:07:59;;;;;;;7.05;5.53;;;18.20;57.00;;;;;;5036434;28;20030;-69
2023/09/18 01:10:32;;;;;;;7.07;5.68;;;18.10;56.90;;;;;;5034679;28;20079;-69
2023/09/18 01:13:13;;;;;;;7.13;5.60;;;18.10;56.90;;;;;;5035685;28;20029;-69
2023/09/18 01:15:51;;;;;;;9.15;5.47;;;18.10;57.00;;;;;;5034900;28;20095;-69
2023/09/18 01:18:18;;;;;;;7.20;5.30;;;18.10;57.20;;;;;;5035633;28;20048;-69
2023/09/18 01:20:44;;;;;;;6.80;5.45;;;18.00;57.10;;;;;;5032777;28;20041;-68
2023/09/18 01:23:11;;;;;;;6.25;5.53;;;18.00;57.10;;;;;;5035883;28;20468;-69
2023/09/18 01:25:37;;;;;;;6.82;4.88;;;18.00;57.20;;;;;;5035962;28;20025;-69
2023/09/18 01:28:03;;;;;;;7.80;5.18;;;18.00;57.20;;;;;;5035585;28;20054;-69
2023/09/18 01:30:29;;;;;;;8.80;5.78;;;18.00;57.30;;;;;;5035437;28;20021;-69
2023/09/18 01:32:58;;;;;;;6.90;5.10;;;18.00;57.40;;;;;;5034263;28;20472;-68
2023/09/18 01:35:29;;;;;;;5.68;4.80;;;18.00;57.40;;;;;;5034438;28;20487;-69
2023/09/18 01:37:56;;;;;;;7.03;5.70;;;18.00;57.40;;;;;;5035793;28;20037;-68
2023/09/18 01:40:23;;;;;;;8.23;5.40;;;18.00;57.40;;;;;;5035191;28;20030;-68
2023/09/18 01:42:49;;;;;;;7.53;5.65;;;18.00;57.40;;;;;;5036033;28;20087;-68
2023/09/18 01:45:14;;;;;;;7.47;5.38;;;18.00;57.40;;;;;;5034222;28;20037;-68
2023/09/18 01:47:40;;;;;;;6.28;5.03;;;18.00;57.40;;;;;;5035701;28;20036;-68
2023/09/18 01:50:06;;;;;;;6.53;5.25;;;17.90;57.30;;;;;;5034346;28;20409;-68
2023/09/18 01:52:34;;;;;;;6.50;5.28;;;17.90;57.40;;;;;;5035234;28;20021;-68
2023/09/18 01:55:00;;;;;;;6.90;5.20;;;17.80;57.40;;;;;;5034845;28;20115;-68
2023/09/18 01:57:25;;;;;;;7.15;5.40;;;17.80;57.50;;;;;;5035819;28;20064;-68
2023/09/18 01:59:51;;;;;;;6.85;5.18;;;17.80;57.60;;;;;;5035262;28;20026;-68
2023/09/18 02:02:17;;;;;;;7.07;5.22;;;17.80;57.70;;;;;;5035543;28;20029;-68
2023/09/18 02:04:42;;;;;;;7.63;5.35;;;17.80;57.70;;;;;;5035335;28;20463;-68
2023/09/18 02:07:09;;;;;;;6.97;4.95;;;17.70;57.70;;;;;;5034546;28;20467;-68
2023/09/18 02:09:35;;;;;;;6.30;5.43;;;17.70;57.80;;;;;;5033529;28;20029;-68
2023/09/18 02:12:00;;;;;;;6.28;5.10;;;17.70;57.80;;;;;;5035059;28;20032;-68
2023/09/18 02:14:26;;;;;;;7.63;5.43;;;17.70;57.90;;;;;;5033746;28;20038;-68
2023/09/18 02:16:51;;;;;;;5.75;4.75;;;17.70;58.00;;;;;;5034959;28;20107;-68
2023/09/18 02:19:18;;;;;;;5.35;4.63;;;17.70;58.00;;;;;;5033672;28;20492;-68
2023/09/18 02:21:43;;;;;;;5.43;4.60;;;17.70;58.00;;;;;;5034609;28;20427;-68
2023/09/18 02:24:09;;;;;;;6.22;5.20;;;17.80;58.00;;;;;;5034486;28;20036;-68
2023/09/18 02:26:36;;;;;;;5.90;4.80;;;17.80;57.90;;;;;;5033471;28;20021;-68
2023/09/18 02:29:05;;;;;;;6.28;4.90;;;17.80;57.90;;;;;;5034770;28;20083;-68
2023/09/18 02:31:30;;;;;;;5.90;4.88;;;17.70;57.90;;;;;;5034840;28;20095;-68
2023/09/18 02:33:56;;;;;;;8.73;5.18;;;17.70;58.00;;;;;;5016894;28;20037;-68
2023/09/18 02:36:21;;;;;;;7.00;4.95;;;17.80;58.00;;;;;;5014836;28;20128;-68
2023/09/18 02:38:47;;;;;;;7.35;5.03;;;17.80;58.00;;;;;;5014509;28;20026;-68
2023/09/18 02:41:13;;;;;;;8.50;5.05;;;17.80;58.00;;;;;;5014210;28;20026;-68
2023/09/18 02:43:38;;;;;;;7.00;4.57;;;17.80;58.00;;;;;;5014727;28;20088;-69
2023/09/18 02:46:06;;;;;;;6.28;4.55;;;17.80;58.00;;;;;;5014724;28;20029;-68
2023/09/18 02:48:32;;;;;;;6.72;5.10;;;17.80;58.00;;;;;;5014893;28;20048;-68
2023/09/18 02:50:59;;;;;;;6.32;4.57;;;17.80;58.00;;;;;;5013347;28;20025;-68
2023/09/18 02:53:25;;;;;;;6.93;4.78;;;17.80;58.10;;;;;;5014173;28;20366;-68
2023/09/18 02:55:53;;;;;;;5.72;4.70;;;17.80;58.00;;;;;;5014591;28;20060;-68
2023/09/18 02:58:19;;;;;;;6.32;5.05;;;17.80;58.00;;;;;;5014338;28;20029;-68
2023/09/18 03:00:49;;;;;;;5.32;4.50;;;17.90;58.00;;;;;;5014304;28;20026;-68
2023/09/18 03:03:16;;;;;;;6.60;4.75;;;17.80;57.90;;;;;;5013201;28;20401;-69
2023/09/18 03:05:43;;;;;;;6.57;4.50;;;17.90;58.00;;;;;;5014374;28;20030;-67
2023/09/18 03:08:09;;;;;;;7.10;4.90;;;17.90;58.00;;;;;;5014789;28;20030;-67
2023/09/18 03:10:36;;;;;;;7.22;4.97;;;17.80;58.00;;;;;;5013011;28;20030;-70
2023/09/18 03:13:02;;;;;;;13.93;10.38;;;17.90;58.00;;;;;;5014191;28;20026;-68
2023/09/18 03:15:28;;;;;;;33.47;23.05;;;17.80;58.00;;;;;;5012968;28;20080;-67
2023/09/18 03:17:55;;;;;;;33.47;23.08;;;17.80;58.00;;;;;;5012707;28;20029;-68
2023/09/18 03:20:28;;;;;;;39.53;27.75;;;17.80;58.00;;;;;;5012567;28;20399;-67
2023/09/18 03:22:56;;;;;;;20.63;14.70;;;17.80;58.00;;;;;;5015311;28;20030;-69
2023/09/18 03:25:22;;;;;;;12.98;10.27;;;17.70;57.90;;;;;;5013125;28;20492;-69
2023/09/18 03:27:50;;;;;;;11.65;8.23;;;17.70;58.00;;;;;;5013193;28;20068;-67
2023/09/18 03:30:16;;;;;;;10.18;7.50;;;17.70;58.00;;;;;;5014140;28;20115;-69
2023/09/18 03:32:42;;;;;;;12.65;7.30;;;17.60;58.00;;;;;;5012625;28;20126;-67
2023/09/18 03:35:17;;;;;;;7.60;6.13;;;17.60;58.10;;;;;;5013923;28;20049;-68
2023/09/18 03:37:50;;;;;;;7.63;6.03;;;17.50;58.00;;;;;;5014260;28;20030;-67
2023/09/18 03:40:17;;;;;;;8.55;6.40;;;17.50;58.10;;;;;;5014256;28;20387;-69
2023/09/18 03:42:42;;;;;;;22.13;15.30;;;17.40;58.00;;;;;;5013869;28;20460;-67
2023/09/18 03:45:09;;;;;;;21.25;15.63;;;17.40;58.10;;;;;;5013962;28;20087;-68
2023/09/18 03:47:36;;;;;;;25.17;18.10;;;17.30;58.20;;;;;;5012437;28;20387;-68
2023/09/18 03:50:02;;;;;;;17.42;13.40;;;17.30;58.30;;;;;;5013818;28;20472;-68
2023/09/18 03:52:28;;;;;;;12.10;9.73;;;17.20;58.40;;;;;;5014482;28;20072;-68
2023/09/18 03:54:53;;;;;;;9.90;7.95;;;17.20;58.50;;;;;;5016159;28;20058;-69
2023/09/18 03:57:19;;;;;;;8.85;7.00;;;17.20;58.60;;;;;;5018013;28;20095;-70
2023/09/18 03:59:45;;;;;;;9.15;6.80;;;17.20;58.50;;;;;;5017621;28;20036;-70
2023/09/18 04:02:10;;;;;;;8.35;6.50;;;17.10;58.50;;;;;;5017660;28;20030;-69
2023/09/18 04:04:36;;;;;;;7.10;6.15;;;17.10;58.60;;;;;;5018148;28;20041;-70
2023/09/18 04:07:05;;;;;;;8.45;6.40;;;17.10;58.60;;;;;;5017666;28;20026;-70
2023/09/18 04:09:31;;;;;;;8.10;6.05;;;17.10;58.70;;;;;;5017641;28;20078;-70
2023/09/18 04:11:57;;;;;;;10.70;6.40;;;17.10;59.30;;;;;;5017669;28;20464;-69
2023/09/18 04:14:23;;;;;;;7.53;5.80;;;17.10;58.80;;;;;;5017396;28;20033;-67
2023/09/18 04:16:48;;;;;;;8.13;6.50;;;17.10;58.80;;;;;;5017087;28;20029;-68
2023/09/18 04:19:14;;;;;;;27.55;19.00;;;17.10;58.80;;;;;;5016150;28;20411;-68
2023/09/18 04:21:39;;;;;;;34.38;23.48;;;17.10;59.40;;;;;;5017120;28;20026;-68
2023/09/18 04:24:05;;;;;;;20.83;12.90;;;17.10;58.90;;;;;;5017213;28;20030;-69
2023/09/18 04:26:32;;;;;;;12.88;9.93;;;17.10;58.80;;;;;;5017514;28;20104;-68
2023/09/18 04:28:59;;;;;;;12.25;8.43;;;17.10;58.90;;;;;;5015614;28;20037;-68
2023/09/18 04:31:24;;;;;;;10.00;7.35;;;17.20;59.10;;;;;;5017171;28;20030;-68
2023/09/18 04:33:50;;;;;;;10.00;6.53;;;17.10;59.10;;;;;;5017194;28;20037;-69
2023/09/18 04:36:16;;;;;;;7.55;5.97;;;17.10;59.10;;;;;;5016952;28;20184;-67
2023/09/18 04:38:41;;;;;;;8.18;6.15;;;17.20;59.20;;;;;;5017116;28;20029;-67
2023/09/18 04:41:07;;;;;;;40.83;33.28;;;17.20;59.20;;;;;;5017863;28;20080;-69
2023/09/18 04:43:38;;;;;;;13.55;10.90;;;17.20;59.30;;;;;;5016897;28;20030;-68
2023/09/18 04:46:04;;;;;;;8.48;5.50;;;17.30;59.30;;;;;;5015195;28;20088;-74
2023/09/18 04:48:31;;;;;;;9.18;5.85;;;17.30;59.30;;;;;;5032279;28;20033;-70
2023/09/18 04:50:58;;;;;;;7.90;5.45;;;17.30;59.20;;;;;;5025925;28;20501;-68
2023/09/18 04:53:24;;;;;;;8.63;5.30;;;17.30;59.20;;;;;;5030659;28;20121;-68
2023/09/18 04:55:50;;;;;;;6.50;5.45;;;17.40;59.30;;;;;;5017754;28;20117;-68
2023/09/18 04:58:16;;;;;;;15.30;10.60;;;17.40;59.40;;;;;;5017787;28;20117;-67
2023/09/18 05:00:42;;;;;;;21.23;15.35;;;17.40;59.40;;;;;;5030238;28;20029;-67
2023/09/18 05:03:09;;;;;;;12.70;8.82;;;17.40;59.40;;;;;;5016584;28;20040;-67
2023/09/18 05:05:35;;;;;;;10.90;7.07;;;17.50;59.50;;;;;;5015724;28;20058;-68
2023/09/18 05:08:07;;;;;;;9.13;6.72;;;17.60;59.50;;;;;;5016377;28;20026;-68
2023/09/18 05:10:36;;;;;;;8.05;6.07;;;17.60;59.40;;;;;;5014522;28;20034;-68
2023/09/18 05:13:02;;;;;;;7.80;5.75;;;17.70;59.50;;;;;;5014816;28;20487;-68
2023/09/18 05:15:29;;;;;;;6.80;5.43;;;17.70;59.40;;;;;;5016108;28;20472;-68
2023/09/18 05:17:57;;;;;;;7.68;5.55;;;17.70;59.40;;;;;;5016261;28;20037;-68
2023/09/18 05:20:24;;;;;;;8.60;5.53;;;17.80;59.40;;;;;;5013449;28;20037;-68
2023/09/18 05:22:54;;;;;;;6.30;5.10;;;17.80;59.40;;;;;;5016090;28;20502;-68
2023/09/18 05:25:21;;;;;;;9.93;5.88;;;17.90;59.40;;;;;;5015999;28;20037;-68
2023/09/18 05:27:48;;;;;;;7.65;5.63;;;18.00;59.40;;;;;;5016091;28;20029;-68
2023/09/18 05:30:21;;;;;;;7.32;5.30;;;18.00;59.30;;;;;;5015237;28;20357;-68
2023/09/18 05:32:47;;;;;;;7.10;5.30;;;18.10;59.40;;;;;;5014433;28;20062;-68
2023/09/18 05:35:14;;;;;;;7.57;6.05;;;18.10;59.30;;;;;;5015904;28;20460;-68
2023/09/18 05:37:40;;;;;;;8.98;6.00;;;18.20;59.30;;;;;;5015469;28;20034;-68
2023/09/18 05:40:11;;;;;;;8.02;5.72;;;18.20;59.30;;;;;;5015143;28;20082;-68
2023/09/18 05:42:43;;;;;;;8.93;6.00;;;18.30;59.30;;;;;;5014411;28;20030;-68
2023/09/18 05:45:13;;;;;;;7.55;5.97;;;18.30;59.30;;;;;;5015654;28;20427;-69
2023/09/18 05:47:39;;;;;;;8.05;6.38;;;18.30;59.20;;;;;;5015549;28;20029;-69
2023/09/18 05:50:09;;;;;;;8.85;6.70;;;18.40;59.20;;;;;;5014241;28;20030;-68
2023/09/18 05:52:35;;;;;;;8.65;6.40;;;18.50;59.20;;;;;;5015434;28;20044;-69
2023/09/18 05:55:02;;;;;;;8.85;6.25;;;18.50;59.20;;;;;;5015078;28;20063;-67
2023/09/18 05:57:28;;;;;;;9.02;6.63;;;18.60;59.20;;;;;;5014247;28;20026;-67
2023/09/18 05:59:57;;;;;;;8.35;6.28;;;18.60;59.20;;;;;;5014386;28;20037;-70
2023/09/18 06:02:24;;;;;;;6.45;5.75;;;18.70;59.20;;;;;;5014164;28;20032;-68
2023/09/18 06:05:03;;;;;;;8.63;6.07;;;18.70;59.20;;;;;;5015263;28;20022;-68
2023/09/18 06:07:29;;;;;;;7.60;5.80;;;18.80;59.20;;;;;;5015644;28;20057;-67
2023/09/18 06:09:57;;;;;;;6.22;5.15;;;18.80;59.10;;;;;;5015117;28;20457;-68
2023/09/18 06:12:23;;;;;;;6.28;5.25;;;18.90;59.10;;;;;;5014296;28;20030;-68
2023/09/18 06:14:49;;;;;;;6.82;5.03;;;19.00;59.10;;;;;;5015006;28;20389;-69
2023/09/18 06:17:15;;;;;;;6.28;4.95;;;19.00;59.00;;;;;;5012855;28;20037;-68
2023/09/18 06:19:42;;;;;;;8.30;5.57;;;19.00;59.00;;;;;;5013648;28;20076;-68
2023/09/18 06:22:08;;;;;;;7.00;5.40;;;19.10;59.00;;;;;;5014903;28;20167;-68
2023/09/18 06:24:34;;;;;;;9.00;4.95;;;19.10;58.80;;;;;;5014956;28;20034;-68
2023/09/18 06:27:00;;;;;;;5.82;4.78;;;19.20;58.80;;;;;;5015498;28;20080;-70
2023/09/18 06:29:26;;;;;;;7.85;5.15;;;19.20;58.70;;;;;;5015774;28;20030;-70
2023/09/18 06:31:51;;;;;;;8.40;5.35;;;19.30;58.60;;;;;;5013286;28;20030;-69
2023/09/18 06:34:17;;;;;;;6.40;5.15;;;19.40;58.70;;;;;;5014664;28;20034;-68
2023/09/18 06:36:43;;;;;;;6.28;5.13;;;19.40;58.60;;;;;;5014870;28;20033;-69
2023/09/18 06:39:09;;;;;;;6.10;5.18;;;19.50;58.60;;;;;;5013400;28;20057;-67
2023/09/18 06:41:34;;;;;;;7.18;5.10;;;19.50;58.40;;;;;;5022934;28;20056;-69
2023/09/18 06:44:02;;;;;;;7.05;5.20;;;19.50;58.40;;;;;;5032654;28;20460;-68
2023/09/18 06:46:28;;;;;;;5.80;4.70;;;19.60;58.40;;;;;;5034165;28;20017;-68
2023/09/18 06:48:53;;;;;;;6.07;4.65;;;19.60;58.20;;;;;;5031151;28;20087;-68
2023/09/18 06:51:19;;;;;;;9.70;8.52;;;19.70;58.20;;;;;;5019818;28;20061;-72
2023/09/18 06:53:45;;;;;;;5.70;4.53;;;19.70;58.40;;;;;;5032963;28;20026;-71
2023/09/18 06:56:12;;;;;;;5.50;4.45;;;19.80;58.50;;;;;;5034207;28;20486;-70
2023/09/18 06:58:38;;;;;;;6.68;4.90;;;20.00;58.60;;;;;;5034234;28;20040;-71
2023/09/18 07:01:06;;;;;;;6.63;4.57;;;20.10;58.70;;;;;;5042049;28;20426;-72
2023/09/18 07:03:34;;;;;;;5.88;4.32;;;20.20;58.70;;;;;;5052306;28;20555;-72
2023/09/18 07:06:00;;;;;;;6.22;4.47;;;20.40;58.70;;;;;;5052672;28;20025;-70
2023/09/18 07:08:26;;;;;;;6.00;4.70;;;20.40;58.50;;;;;;5045997;28;20026;-72
2023/09/18 07:10:52;;;;;;;5.82;4.97;;;20.50;58.40;;;;;;5033995;28;20135;-69
2023/09/18 07:13:17;;;;;;;5.72;4.75;;;20.60;58.40;;;;;;5033996;28;20021;-71
2023/09/18 07:15:43;;;;;;;7.35;4.68;;;20.70;58.30;;;;;;5033591;28;20137;-72
2023/09/18 07:18:13;;;;;;;5.70;4.43;;;20.80;58.10;;;;;;5034160;28;20036;-71
2023/09/18 07:20:40;;;;;;;5.53;4.90;;;20.90;58.10;;;;;;5032655;28;20480;-72
2023/09/18 07:23:05;;;;;;;6.25;4.70;;;21.10;58.20;;;;;;5033692;28;20025;-72
2023/09/18 07:25:31;;;;;;;6.32;4.85;;;21.10;58.10;;;;;;5021284;28;20125;-72
2023/09/18 07:27:57;;;;;;;5.47;4.65;;;21.20;58.00;;;;;;5021118;28;20409;-72
2023/09/18 07:30:26;;;;;;;4.30;3.85;;;21.30;57.90;;;;;;5033416;28;20021;-72
2023/09/18 07:32:56;;;;;;;6.15;4.93;;;21.40;57.60;;;;;;5033893;28;20495;-71
2023/09/18 07:35:22;;;;;;;5.25;4.53;;;21.40;57.40;;;;;;5033650;28;20137;-71
2023/09/18 07:37:48;;;;;;;11.57;9.77;;;21.50;57.40;;;;;;5025117;28;20037;-73
2023/09/18 07:40:15;;;;;;;8.07;4.95;;;21.60;57.40;;;;;;5013588;28;20445;-73
2023/09/18 07:42:43;;;;;;;7.63;5.10;;;21.60;57.20;;;;;;5019956;28;20502;-71
2023/09/18 07:45:09;;;;;;;8.10;5.20;;;21.70;57.10;;;;;;5029605;28;20061;-71
2023/09/18 07:47:35;;;;;;;8.88;5.50;;;21.80;57.00;;;;;;5029273;28;20018;-73
2023/09/18 07:50:01;;;;;;;7.63;5.03;;;21.80;56.80;;;;;;5013728;28;20092;-72
2023/09/18 07:52:26;;;;;;;5.85;4.47;;;21.90;56.70;;;;;;5030965;28;20021;-72
2023/09/18 07:54:52;;;;;;;7.28;5.18;;;21.90;56.30;;;;;;5032646;28;20071;-73
2023/09/18 07:57:19;;;;;;;5.55;4.35;;;22.00;56.30;;;;;;5032065;28;20033;-72
2023/09/18 07:59:46;;;;;;;6.95;5.03;;;22.00;56.30;;;;;;5027380;28;20345;-73
2023/09/18 08:02:12;;;;;;;5.43;3.90;;;22.10;56.20;;;;;;5018839;28;20022;-73
2023/09/18 08:04:37;;;;;;;6.75;4.57;;;22.10;55.80;;;;;;5032787;28;20480;-73
2023/09/18 08:07:06;;;;;;;5.63;4.32;;;22.20;55.80;;;;;;5019617;28;20388;-72
2023/09/18 08:09:36;;;;;;;5.00;3.83;;;22.20;55.80;;;;;;5013446;28;20364;-71
2023/09/18 08:12:08;;;;;;;5.82;3.90;;;22.30;55.50;;;;;;5012166;28;20060;-72
2023/09/18 08:14:36;;;;;;;7.18;4.38;;;22.30;55.30;;;;;;5012681;28;20030;-70
2023/09/18 08:17:04;;;;;;;5.40;4.05;;;22.30;55.10;;;;;;5013449;28;20037;-71
2023/09/18 08:19:30;;;;;;;4.78;3.90;;;22.40;55.70;;;;;;5013609;28;20038;-72
2023/09/18 08:21:56;;;;;;;9.00;6.57;;;22.40;54.80;;;;;;5021022;28;20025;-71
2023/09/18 08:24:22;;;;;;;4.22;3.60;;;22.50;54.80;;;;;;5015748;28;20084;-71
2023/09/18 08:26:49;;;;;;;5.15;3.90;;;22.50;54.60;;;;;;5011997;28;20550;-71
2023/09/18 08:29:15;;;;;;;5.28;3.58;;;22.60;54.50;;;;;;5012097;28;20436;-72
2023/09/18 08:31:41;;;;;;;4.57;3.45;;;22.60;54.60;;;;;;5012207;28;20026;-70
2023/09/18 08:34:06;;;;;;;4.50;4.00;;;22.70;54.40;;;;;;5013425;28;20529;-70
2023/09/18 08:36:32;;;;;;;4.63;3.65;;;22.70;54.40;;;;;;5013327;28;20042;-70
2023/09/18 08:38:58;;;;;;;4.97;3.70;;;22.70;54.40;;;;;;5014458;28;20461;-70
2023/09/18 08:41:27;;;;;;;4.03;3.38;;;22.80;54.40;;;;;;5016748;28;20306;-71
2023/09/18 08:43:56;;;;;;;4.68;3.63;;;22.80;54.30;;;;;;5017314;28;20034;-71
2023/09/18 08:46:22;;;;;;;5.30;3.70;;;22.90;54.10;;;;;;5015511;28;20030;-71
2023/09/18 08:48:49;;;;;;;5.18;3.60;;;22.90;53.90;;;;;;5016983;28;20026;-71
2023/09/18 08:51:18;;;;;;;4.43;3.58;;;22.90;53.60;;;;;;5016616;28;20085;-71
2023/09/18 08:53:44;;;;;;;4.05;3.50;;;22.90;53.50;;;;;;5016153;28;20105;-70
2023/09/18 08:56:12;;;;;;;4.43;3.45;;;23.00;53.50;;;;;;5017105;28;20078;-70
2023/09/18 08:58:42;;;;;;;4.07;3.30;;;23.00;53.30;;;;;;5016701;28;20018;-71
2023/09/18 09:01:12;;;;;;;5.40;2.70;;;23.00;53.10;;;;;;5015468;28;20452;-71
2023/09/18 09:03:39;;;;;;;5.80;3.30;;;23.10;53.10;;;;;;5017331;28;20030;-70
2023/09/18 09:06:06;;;;;;;4.85;3.15;;;23.10;53.00;;;;;;5016314;28;20111;-71
2023/09/18 09:08:32;;;;;;;3.75;3.35;;;23.10;52.90;;;;;;5015005;28;20034;-71
2023/09/18 09:10:58;;;;;;;3.53;3.05;;;23.10;52.90;;;;;;5015312;28;20033;-70
2023/09/18 09:13:26;;;;;;;3.40;3.10;;;23.10;52.80;;;;;;5015179;28;20026;-71
2023/09/18 09:15:56;;;;;;;4.55;3.30;;;23.20;52.90;;;;;;5015147;28;20038;-71
2023/09/18 09:18:26;;;;;;;3.30;3.00;;;23.20;52.80;;;;;;5016153;28;20105;-71
2023/09/18 09:20:59;;;;;;;3.80;3.08;;;23.30;52.70;;;;;;5016007;28;20117;-70
2023/09/18 09:23:29;;;;;;;5.15;3.40;;;23.30;52.60;;;;;;5017426;28;20034;-71
2023/09/18 09:26:13;;;;;;;3.22;2.70;;;23.30;52.50;;;;;;5016259;28;20034;-71
2023/09/18 09:28:39;;;;;;;4.10;3.00;;;23.30;52.30;;;;;;5014917;28;20064;-70
2023/09/18 09:31:05;;;;;;;3.88;3.15;;;23.30;52.20;;;;;;5014757;28;20062;-71
2023/09/18 09:33:31;;;;;;;3.50;3.00;;;23.30;52.30;;;;;;5015826;28;20479;-71
2023/09/18 09:35:57;;;;;;;2.83;2.63;;;23.30;52.30;;;;;;5016259;28;20030;-70
2023/09/18 09:38:31;;;;;;;4.13;2.90;;;23.30;52.10;;;;;;5014616;28;20472;-71
2023/09/18 09:41:01;;;;;;;3.85;3.00;;;23.40;52.00;;;;;;5016151;28;20022;-71
2023/09/18 09:43:29;;;;;;;4.03;2.75;;;23.40;51.90;;;;;;5014522;28;20084;-71
2023/09/18 09:46:01;;;;;;;3.10;2.65;;;23.40;51.90;;;;;;5015511;28;20522;-71
2023/09/18 09:48:30;;;;;;;3.47;3.03;;;23.40;51.70;;;;;;5014852;28;20026;-70
2023/09/18 09:51:01;;;;;;;3.97;2.90;;;23.40;51.70;;;;;;5015635;28;20460;-71
2023/09/18 09:53:43;;;;;;;3.15;2.65;;;23.50;51.70;;;;;;5015188;28;20026;-72
2023/09/18 09:56:09;;;;;;;3.95;2.40;;;23.50;51.40;;;;;;5018957;28;20037;-72
2023/09/18 09:58:35;;;;;;;3.58;2.92;;;23.50;51.50;;;;;;5034141;28;20523;-72
2023/09/18 10:01:08;;;;;;;3.45;2.90;;;23.50;51.40;;;;;;5034325;28;20486;-71
2023/09/18 10:03:36;;;;;;;4.15;3.00;;;23.50;51.30;;;;;;5035252;28;20348;-71
2023/09/18 10:06:05;;;;;;;3.28;2.78;;;23.50;51.20;;;;;;5033928;28;20025;-71
2023/09/18 10:08:32;;;;;;;3.30;2.65;;;23.60;51.10;;;;;;5034884;28;20033;-71
2023/09/18 10:11:11;;;;;;;3.70;2.90;;;23.60;50.90;;;;;;5035166;28;20049;-71
2023/09/18 10:13:59;;;;;;;3.22;2.80;;;23.70;50.70;;;;;;5034182;28;20026;-72
2023/09/18 10:16:27;;;;;;;4.20;3.10;;;23.70;50.70;;;;;;5035063;28;20033;-72
2023/09/18 10:19:04;;;;;;;3.67;2.63;;;23.70;50.60;;;;;;5034212;28;20404;-72
2023/09/18 10:21:41;;;;;;;3.92;2.88;;;23.80;50.50;;;;;;5034807;28;20030;-70
2023/09/18 10:24:29;;;;;;;4.68;2.97;;;23.80;50.30;;;;;;5034754;28;20033;-70
2023/09/18 10:27:04;;;;;;;3.38;2.80;;;23.80;50.10;;;;;;5034613;28;20037;-70
2023/09/18 10:29:32;;;;;;;3.17;2.78;;;23.90;50.20;;;;;;5034564;28;20056;-70
2023/09/18 10:31:58;;;;;;;3.13;2.83;;;23.90;50.20;;;;;;5033370;28;20557;-71
2023/09/18 10:34:24;;;;;;;3.33;2.95;;;23.90;50.20;;;;;;5033307;28;20037;-71
2023/09/18 10:36:54;;;;;;;3.10;2.80;;;24.00;50.10;;;;;;5034566;28;20491;-72
2023/09/18 10:39:26;;;;;;;3.20;2.90;;;23.90;50.00;;;;;;5033410;28;20091;-72
2023/09/18 10:42:01;;;;;;;3.67;3.20;;;24.00;50.00;;;;;;5031317;28;20464;-72
2023/09/18 10:44:28;;;;;;;3.92;3.17;;;24.00;50.00;;;;;;5034470;28;20124;-71
2023/09/18 10:46:55;;;;;;;4.10;3.20;;;24.00;50.00;;;;;;5033657;28;20025;-71
2023/09/18 10:49:21;;;;;;;3.50;2.90;;;24.10;50.00;;;;;;5034416;28;20456;-71
2023/09/18 10:51:48;;;;;;;4.32;3.10;;;24.10;49.90;;;;;;5032956;28;20465;-71
2023/09/18 10:54:21;;;;;;;3.10;2.70;;;24.10;49.70;;;;;;5033794;28;20080;-72
2023/09/18 10:56:47;;;;;;;2.78;2.58;;;24.10;49.60;;;;;;5032847;28;20029;-71
2023/09/18 10:59:15;;;;;;;4.63;2.67;;;24.20;49.70;;;;;;5034263;28;20022;-70
2023/09/18 11:01:42;;;;;;;3.05;2.75;;;24.20;49.60;;;;;;5034104;28;20068;-72
2023/09/18 11:04:09;;;;;;;3.55;3.10;;;24.20;49.50;;;;;;5032777;28;20088;-71
2023/09/18 11:06:53;;;;;;;3.65;2.90;;;24.20;49.50;;;;;;5034267;28;20021;-71
2023/09/18 11:09:27;;;;;;;2.60;2.40;;;24.20;49.60;;;;;;5033838;28;20029;-70
2023/09/18 11:11:56;;;;;;;;;;;24.20;49.50;;;;;;5031729;28;20474;-71
2023/09/18 11:14:22;;;;;;;2.92;2.35;;;24.20;49.30;;;;;;5029779;28;19917;-71
2023/09/18 11:16:49;;;;;;;3.25;2.85;;;24.20;49.60;;;;;;5031264;28;20037;-71
2023/09/18 11:19:22;;;;;;;3.67;3.00;;;24.20;49.70;;;;;;5021176;28;20033;-71
2023/09/18 11:21:47;;;;;;;3.47;2.80;;;24.20;49.70;;;;;;5015995;28;20172;-72
2023/09/18 11:24:21;;;;;;;3.47;3.15;;;24.20;49.80;;;;;;5016446;28;20125;-70
2023/09/18 11:26:48;;;;;;;4.57;2.75;;;24.20;49.80;;;;;;5032805;28;20464;-72
2023/09/18 11:29:19;;;;;;;3.20;2.80;;;24.40;50.00;;;;;;5033956;28;20033;-71
2023/09/18 11:31:56;;;;;;;3.25;2.90;;;24.40;50.00;;;;;;5032421;28;20383;-72
2023/09/18 11:34:28;;;;;;;4.72;2.95;;;24.40;49.90;;;;;;5033379;28;20103;-72
2023/09/18 11:36:54;;;;;;;3.22;2.80;;;24.40;49.90;;;;;;5027033;28;20105;-71
2023/09/18 11:39:37;;;;;;;3.60;3.10;;;24.40;50.00;;;;;;5013027;28;20076;-71
2023/09/18 11:42:15;;;;;;;3.33;3.03;;;24.40;49.90;;;;;;5024807;28;20022;-74
2023/09/18 11:44:41;;;;;;;4.60;2.60;;;24.40;49.90;;;;;;5021158;28;20088;-70
2023/09/18 11:47:29;;;;;;;3.85;2.85;;;24.40;49.90;;;;;;5021818;28;20423;-71
2023/09/18 11:49:58;;;;;;;3.20;2.90;;;24.50;50.10;;;;;;5014090;28;20398;-71
2023/09/18 11:52:31;;;;;;;4.20;2.83;;;24.50;50.00;;;;;;5013705;28;20034;-71
2023/09/18 11:54:58;;;;;;;5.60;3.07;;;24.50;50.00;;;;;;5033355;28;20058;-72
2023/09/18 11:57:24;;;;;;;3.58;2.78;;;24.50;50.10;;;;;;5030829;28;20029;-71
2023/09/18 11:59:52;;;;;;;4.15;2.80;;;24.50;50.10;;;;;;5033780;28;20058;-72
2023/09/18 12:02:38;;;;;;;3.30;3.00;;;24.50;50.10;;;;;;5033449;28;20235;-72
2023/09/18 12:05:19;;;;;;;4.20;3.40;;;24.50;50.00;;;;;;5033535;28;20080;-73
2023/09/18 12:07:46;;;;;;;5.25;3.10;;;24.50;50.00;;;;;;5033441;28;20105;-73
2023/09/18 12:10:20;;;;;;;4.95;3.08;;;24.50;50.20;;;;;;5031874;28;20475;-72
2023/09/18 12:12:46;;;;;;;3.65;3.10;;;24.60;50.10;;;;;;5032533;28;20026;-70
2023/09/18 12:15:15;;;;;;;4.18;3.15;;;24.60;50.00;;;;;;5031504;28;20058;-73
2023/09/18 12:17:40;;;;;;;4.53;2.95;;;24.60;50.00;;;;;;5016965;28;20034;-70
2023/09/18 12:20:06;;;;;;;4.95;3.22;;;24.60;50.00;;;;;;5017020;28;20029;-70
2023/09/18 12:22:36;;;;;;;3.72;3.20;;;24.60;49.90;;;;;;5017597;28;20490;-71
2023/09/18 12:25:28;;;;;;;3.72;3.00;;;24.60;49.90;;;;;;5016016;28;20388;-70
2023/09/18 12:27:55;;;;;;;3.78;2.97;;;24.70;49.80;;;;;;5017597;28;20435;-71
2023/09/18 12:30:22;;;;;;;2.80;2.60;;;24.60;49.80;;;;;;4999345;28;20033;-72
2023/09/18 12:32:52;;;;;;;3.95;2.72;;;24.60;49.80;;;;;;5016928;28;20033;-71
2023/09/18 12:35:18;;;;;;;3.25;2.90;;;24.60;49.80;;;;;;5017314;28;20111;-72
2023/09/18 12:37:44;;;;;;;2.67;2.42;;;24.60;49.80;;;;;;5017217;28;20398;-72
2023/09/18 12:40:21;;;;;;;3.10;2.80;;;24.60;49.80;;;;;;5015673;28;20385;-71
2023/09/18 12:42:47;;;;;;;3.17;2.88;;;24.70;49.60;;;;;;5015545;28;20063;-72
2023/09/18 12:45:13;;;;;;;3.17;2.72;;;24.70;49.70;;;;;;5016755;28;20468;-72
2023/09/18 12:47:40;;;;;;;3.33;2.83;;;24.70;49.60;;;;;;5016958;28;20026;-70
2023/09/18 12:50:06;;;;;;;3.00;2.70;;;24.70;49.60;;;;;;5028623;28;20029;-72